Time;durP1;ratioP1;P1;durP2;ratioP2;P2;SDS_P1;SDS_P2;PMS_P1;PMS_P2;Temp;Humidity;BMP_temperature;BMP_pressure;BME280_temperature;BME280_humidity;BME280_pressure;Samples;Min_cycle;Max_cycle;Signal;HPM_P1;HPM_P2
2024/04/02 00:02:00;;;;;;;5.93;1.35;;;;;;;10.88;100.00;98387.06;5039531;28;20032;-92
2024/04/02 00:04:26;;;;;;;3.83;0.90;;;;;;;11.13;100.00;98440.31;5046974;28;20040;-93
2024/04/02 00:06:53;;;;;;;3.40;1.05;;;;;;;11.09;100.00;98438.69;5037761;28;20048;-93
2024/04/02 00:09:19;;;;;;;5.93;1.42;;;;;;;10.97;100.00;98423.13;5040745;28;20044;-92
2024/04/02 00:11:45;;;;;;;5.15;1.50;;;;;;;11.05;100.00;98447.69;5047204;28;20057;-92
2024/04/02 00:14:11;;;;;;;4.53;0.93;;;;;;;10.74;100.00;98408.81;5038978;28;20083;-92
2024/04/02 00:16:37;;;;;;;6.15;1.65;;;;;;;10.96;100.00;98456.00;5039107;28;20036;-92
2024/04/02 00:19:04;;;;;;;3.45;1.17;;;;;;;10.81;100.00;98438.75;5045230;28;20049;-93
2024/04/02 00:21:31;;;;;;;4.45;1.40;;;;;;;10.78;100.00;98463.66;5041017;28;20052;-92
2024/04/02 00:23:56;;;;;;;5.07;1.60;;;;;;;10.71;100.00;98462.09;5046962;28;20501;-91
2024/04/02 00:26:22;;;;;;;5.53;1.45;;;;;;;10.85;100.00;98457.22;5034828;28;20038;-91
2024/04/02 00:28:49;;;;;;;9.38;1.35;;;;;;;10.79;100.00;98465.38;5042095;28;20041;-91
2024/04/02 00:31:15;;;;;;;12.40;1.85;;;;;;;10.56;100.00;98436.91;5051853;28;20053;-92
2024/04/02 00:33:41;;;;;;;9.90;1.27;;;;;;;10.37;100.00;98391.44;5043073;28;20041;-92
2024/04/02 00:36:09;;;;;;;2.65;1.33;;;;;;;10.32;100.00;98419.91;5028996;28;20140;-92
2024/04/02 00:38:35;;;;;;;4.53;1.02;;;;;;;10.77;100.00;98480.53;5039731;28;20119;-92
2024/04/02 00:41:01;;;;;;;6.25;1.60;;;;;;;10.79;100.00;98494.66;5042907;28;20487;-92
2024/04/02 00:43:27;;;;;;;7.18;1.50;;;;;;;10.82;100.00;98502.53;5044298;28;20052;-93
2024/04/02 00:45:55;;;;;;;6.32;0.80;;;;;;;10.93;100.00;98493.31;5045696;28;20044;-92
2024/04/02 00:48:22;;;;;;;7.53;1.33;;;;;;;10.66;100.00;98451.63;5042398;28;20037;-92
2024/04/02 00:50:49;;;;;;;9.35;1.70;;;;;;;11.08;100.00;98491.03;5046336;28;20094;-93
2024/04/02 00:53:19;;;;;;;8.50;1.02;;;;;;;10.94;100.00;98476.44;5045563;28;20045;-91
2024/04/02 00:55:45;;;;;;;10.07;1.50;;;;;;;10.97;100.00;98501.16;5050330;28;20037;-91
2024/04/02 00:58:12;;;;;;;7.40;1.30;;;;;;;10.87;100.00;98502.38;5044406;28;20509;-94
2024/04/02 01:00:40;;;;;;;7.15;1.63;;;;;;;10.89;100.00;98522.69;5043480;28;20105;-92
2024/04/02 01:03:06;;;;;;;5.85;1.25;;;;;;;11.06;100.00;98514.16;5048930;28;20071;-91
2024/04/02 01:05:35;;;;;;;3.95;1.65;;;;;;;11.10;100.00;98512.25;5047216;28;20041;-93
2024/04/02 01:08:02;;;;;;;3.67;1.15;;;;;;;11.17;100.00;98524.47;5034964;28;20049;-92
2024/04/02 01:10:31;;;;;;;4.63;0.93;;;;;;;10.57;100.00;98396.09;5041583;28;20043;-91
2024/04/02 01:12:58;;;;;;;6.00;2.08;;;;;;;11.31;100.00;98514.19;5039564;28;20049;-92
2024/04/02 01:15:24;;;;;;;11.75;1.42;;;;;;;11.20;100.00;98526.13;5056323;28;20041;-91
2024/04/02 01:17:50;;;;;;;6.25;1.08;;;;;;;11.34;100.00;98531.84;5052986;28;20043;-91
2024/04/02 01:20:16;;;;;;;5.25;0.88;;;;;;;11.18;100.00;98491.59;5047228;28;20090;-91
2024/04/02 01:22:41;;;;;;;8.57;1.40;;;;;;;10.56;100.00;98417.41;5041870;28;20063;-92
2024/04/02 01:25:09;;;;;;;2.53;0.82;;;;;;;10.58;100.00;98428.84;5046543;28;20047;-91
2024/04/02 01:27:36;;;;;;;10.32;1.48;;;;;;;11.24;100.00;98533.09;5058140;28;20507;-90
2024/04/02 01:30:03;;;;;;;8.15;1.25;;;;;;;11.25;100.00;98529.50;5062392;28;20115;-93
2024/04/02 01:32:29;;;;;;;6.38;1.30;;;;;;;11.18;100.00;98533.31;5063581;28;20060;-90
2024/04/02 01:34:56;;;;;;;1.60;0.70;;;;;;;11.33;100.00;98534.59;5048578;28;20078;-93
2024/04/02 01:37:22;;;;;;;6.50;1.30;;;;;;;10.75;100.00;98482.34;5057620;28;20064;-93
2024/04/02 01:39:48;;;;;;;6.95;0.95;;;;;;;11.17;100.00;98550.19;5053738;28;20048;-92
2024/04/02 01:42:14;;;;;;;3.08;1.13;;;;;;;10.90;100.00;98497.81;5059938;28;20052;-93
2024/04/02 01:44:42;;;;;;;3.13;1.23;;;;;;;10.66;100.00;98464.91;5058807;28;20063;-94
2024/04/02 01:47:08;;;;;;;7.63;1.48;;;;;;;11.00;100.00;98493.09;5024204;28;20036;-94
2024/04/02 01:49:34;;;;;;;8.70;1.15;;;;;;;11.19;100.00;98540.34;5043650;28;20033;-93
2024/04/02 01:52:00;;;;;;;2.45;0.95;;;;;;;10.67;100.00;98433.91;5041302;28;20044;-94
2024/04/02 01:54:26;;;;;;;5.53;1.17;;;;;;;10.85;100.00;98515.72;5044783;28;20045;-92
2024/04/02 01:56:52;;;;;;;2.20;0.82;;;;;;;11.07;100.00;98561.13;5049139;28;20111;-93
2024/04/02 01:59:18;;;;;;;6.95;1.05;;;;;;;10.90;100.00;98534.19;5048598;28;20091;-90
2024/04/02 02:01:46;;;;;;;7.10;1.13;;;;;;;11.03;100.00;98550.63;5066115;28;20067;-90
2024/04/02 02:04:12;;;;;;;5.47;1.30;;;;;;;10.84;100.00;98522.00;5058343;28;20099;-91
2024/04/02 02:06:38;;;;;;;4.95;1.02;;;;;;;11.20;100.00;98558.06;5049829;28;20036;-93
2024/04/02 02:09:03;;;;;;;7.43;1.85;;;;;;;11.24;100.00;98571.22;5059224;28;20056;-94
2024/04/02 02:11:29;;;;;;;6.97;1.10;;;;;;;11.23;100.00;98572.16;5058918;28;20116;-92
2024/04/02 02:13:59;;;;;;;5.18;1.27;;;;;;;10.95;100.00;98542.03;5054984;28;20135;-92
2024/04/02 02:16:26;;;;;;;4.22;1.15;;;;;;;11.15;100.00;98568.88;5045039;28;20048;-92
2024/04/02 02:18:54;;;;;;;5.45;1.13;;;;;;;11.02;100.00;98557.75;5038420;28;20041;-93
2024/04/02 02:21:20;;;;;;;10.93;1.55;;;;;;;11.05;100.00;98570.09;5049785;28;20043;-93
2024/04/02 02:23:46;;;;;;;8.18;1.45;;;;;;;10.72;100.00;98503.75;5068573;28;20040;-91
2024/04/02 02:26:12;;;;;;;6.88;2.08;;;;;;;11.15;100.00;98568.00;5058795;28;20062;-90
2024/04/02 02:28:38;;;;;;;3.88;0.70;;;;;;;10.80;100.00;98536.31;5054551;28;20477;-90
2024/04/02 02:31:06;;;;;;;5.55;1.45;;;;;;;10.29;100.00;98428.00;5063691;28;20055;-90
2024/04/02 02:33:32;;;;;;;3.10;1.70;;;;;;;10.48;100.00;98485.00;5045194;28;20117;-92
2024/04/02 02:35:59;;;;;;;5.93;1.25;;;;;;;10.94;100.00;98582.88;5055210;28;20044;-92
2024/04/02 02:38:25;;;;;;;6.28;1.35;;;;;;;10.30;100.00;98461.66;5038948;28;20064;-92
2024/04/02 02:40:57;;;;;;;6.22;1.95;;;;;;;10.90;100.00;98574.97;5037614;28;20072;-92
2024/04/02 02:43:23;;;;;;;2.00;0.88;;;;;;;10.85;100.00;98571.59;5044954;28;20040;-92
2024/04/02 02:45:50;;;;;;;6.38;1.85;;;;;;;10.82;100.00;98570.81;5049619;28;20062;-92
2024/04/02 02:48:16;;;;;;;6.38;1.67;;;;;;;9.91;100.00;98416.75;5037392;28;20136;-93
2024/04/02 02:50:42;;;;;;;5.68;1.40;;;;;;;10.85;100.00;98574.25;5037980;28;20037;-91
2024/04/02 02:53:09;;;;;;;5.68;1.23;;;;;;;10.67;100.00;98533.16;5040421;28;20136;-91
2024/04/02 02:55:35;;;;;;;6.07;1.15;;;;;;;10.64;100.00;98521.72;5047614;28;20059;-91
2024/04/02 02:58:01;;;;;;;4.68;0.80;;;;;;;11.09;100.00;98577.06;5039748;28;20061;-91
2024/04/02 03:00:27;;;;;;;2.78;0.73;;;;;;;11.17;100.00;98575.03;5049994;28;20063;-94
2024/04/02 03:02:53;;;;;;;7.13;1.95;;;;;;;10.73;100.00;98493.97;5046928;28;20049;-93
2024/04/02 03:05:19;;;;;;;7.93;1.15;;;;;;;10.59;100.00;98454.53;5045452;28;20041;-92
2024/04/02 03:07:45;;;;;;;5.93;1.02;;;;;;;11.00;100.00;98530.31;5045752;28;20052;-93
2024/04/02 03:10:13;;;;;;;2.97;1.10;;;;;;;11.29;100.00;98579.06;5049296;28;20135;-92
2024/04/02 03:12:39;;;;;;;3.53;1.05;;;;;;;11.28;100.00;98578.19;5061837;28;20072;-93
2024/04/02 03:15:05;;;;;;;9.60;1.60;;;;;;;11.39;100.00;98567.19;5048046;28;20059;-91
2024/04/02 03:17:31;;;;;;;7.47;1.40;;;;;;;10.80;100.00;98466.25;5058972;28;20048;-93
2024/04/02 03:19:57;;;;;;;3.50;0.73;;;;;;;11.27;100.00;98570.25;5047289;28;20143;-91
2024/04/02 03:22:23;;;;;;;7.15;1.02;;;;;;;10.92;100.00;98539.47;5045770;28;20125;-91
2024/04/02 03:24:51;;;;;;;5.57;0.98;;;;;;;11.14;100.00;98582.22;5037930;28;20037;-92
2024/04/02 03:27:18;;;;;;;9.57;1.02;;;;;;;11.23;100.00;98584.59;5037263;28;20075;-92
2024/04/02 03:29:44;;;;;;;9.73;1.20;;;;;;;11.20;100.00;98590.00;5042686;28;20045;-92
2024/04/02 03:32:10;;;;;;;5.47;1.08;;;;;;;11.21;100.00;98584.66;5046842;28;20043;-91
2024/04/02 03:34:36;;;;;;;5.43;1.25;;;;;;;11.17;100.00;98608.72;5044883;28;20053;-92
2024/04/02 03:37:02;;;;;;;7.32;0.80;;;;;;;11.07;100.00;98562.94;5038954;28;20078;-91
2024/04/02 03:39:28;;;;;;;5.22;1.90;;;;;;;11.26;100.00;98604.00;5048977;28;20113;-92
2024/04/02 03:41:55;;;;;;;10.00;1.33;;;;;;;11.34;100.00;98600.19;5041497;28;20503;-93
2024/04/02 03:44:23;;;;;;;5.22;1.23;;;;;;;11.34;100.00;98600.19;5044120;28;20057;-92
2024/04/02 03:46:49;;;;;;;4.03;0.85;;;;;;;11.44;100.00;98606.97;5039824;28;20043;-93
2024/04/02 03:49:15;;;;;;;4.18;0.90;;;;;;;11.49;100.00;98602.34;5043734;28;20037;-92
2024/04/02 03:51:41;;;;;;;6.10;1.70;;;;;;;10.99;100.00;98503.75;5041805;28;20455;-93
2024/04/02 03:54:06;;;;;;;8.25;1.13;;;;;;;10.80;100.00;98472.47;5042246;28;20614;-92
2024/04/02 03:56:34;;;;;;;7.00;1.70;;;;;;;11.43;100.00;98595.47;5050951;28;20182;-92
2024/04/02 03:59:00;;;;;;;9.30;2.67;;;;;;;11.43;100.00;98610.56;5042856;28;20508;-94
2024/04/02 04:01:28;;;;;;;18.10;2.72;;;;;;;11.24;100.00;98589.88;5047384;28;20045;-91
2024/04/02 04:03:54;;;;;;;4.88;2.20;;;;;;;11.19;100.00;98562.53;5063525;28;20464;-92
2024/04/02 04:06:19;;;;;;;7.93;1.13;;;;;;;11.44;100.00;98604.31;5050255;28;20128;-93
2024/04/02 04:08:45;;;;;;;12.73;1.70;;;;;;;11.36;100.00;98596.56;5045027;28;20048;-93
2024/04/02 04:11:11;;;;;;;4.72;1.20;;;;;;;11.34;100.00;98608.19;5050975;28;20090;-92
2024/04/02 04:13:37;;;;;;;7.22;1.20;;;;;;;10.52;100.00;98476.91;5047831;28;20553;-93
2024/04/02 04:16:04;;;;;;;7.97;1.23;;;;;;;11.16;100.00;98610.53;5044500;28;20041;-92
2024/04/02 04:18:32;;;;;;;10.35;1.02;;;;;;;11.10;100.00;98608.06;5041126;28;20037;-92
2024/04/02 04:20:59;;;;;;;2.55;1.20;;;;;;;10.98;100.00;98605.81;5044393;28;20095;-93
2024/04/02 04:23:26;;;;;;;9.50;2.03;;;;;;;10.64;100.00;98558.97;5056777;28;20048;-93
2024/04/02 04:25:56;;;;;;;7.43;1.05;;;;;;;10.39;100.00;98517.19;5041207;28;20128;-91
2024/04/02 04:28:22;;;;;;;9.68;1.65;;;;;;;10.62;100.00;98564.31;5047645;28;20051;-93
2024/04/02 04:30:52;;;;;;;12.10;1.50;;;;;;;10.07;100.00;98480.91;5048512;28;20039;-92
2024/04/02 04:33:18;;;;;;;7.68;1.50;;;;;;;10.65;100.00;98572.22;5040588;28;20069;-93
2024/04/02 04:35:46;;;;;;;5.25;1.05;;;;;;;10.14;100.00;98493.09;5041155;28;20124;-93
2024/04/02 04:38:13;;;;;;;13.13;3.20;;;;;;;10.83;100.00;98634.59;5043673;28;20032;-93
2024/04/02 04:40:39;;;;;;;7.93;2.03;;;;;;;10.83;100.00;98625.75;5040515;28;20064;-94
2024/04/02 04:43:05;;;;;;;13.05;1.98;;;;;;;10.51;100.00;98573.53;5039803;28;20045;-92
2024/04/02 04:45:31;;;;;;;6.22;1.63;;;;;;;10.79;100.00;98626.78;5039864;28;20128;-93
2024/04/02 04:47:58;;;;;;;6.93;1.52;;;;;;;10.63;100.00;98605.09;5040034;28;20048;-93
2024/04/02 04:50:25;;;;;;;4.05;1.40;;;;;;;10.31;100.00;98580.31;5040216;28;20041;-93
2024/04/02 04:52:53;;;;;;;7.30;1.60;;;;;;;10.19;100.00;98546.97;5040403;28;20052;-93
2024/04/02 04:55:19;;;;;;;6.38;1.70;;;;;;;10.50;100.00;98622.34;5039507;28;20037;-94
2024/04/02 04:57:45;;;;;;;4.78;1.50;;;;;;;9.92;100.00;98521.19;5039494;28;20485;-93
2024/04/02 05:00:13;;;;;;;7.03;1.80;;;;;;;10.25;100.00;98604.38;5040037;28;20052;-95
2024/04/02 05:02:39;;;;;;;10.30;2.35;;;;;;;10.41;100.00;98631.41;5040172;28;20048;-94
2024/04/02 05:05:06;;;;;;;4.15;1.05;;;;;;;10.27;100.00;98616.69;5052557;28;20033;-94
2024/04/02 05:07:32;;;;;;;3.08;1.38;;;;;;;9.85;100.00;98541.75;5039486;28;20044;-92
2024/04/02 05:10:00;;;;;;;7.07;1.20;;;;;;;10.27;100.00;98637.09;5057802;28;20037;-95
2024/04/02 05:12:26;;;;;;;6.10;1.40;;;;;;;10.22;100.00;98633.72;5059788;28;20041;-94
2024/04/02 05:14:52;;;;;;;11.77;2.30;;;;;;;9.87;100.00;98548.75;5055394;28;20044;-93
2024/04/02 05:17:18;;;;;;;6.32;1.60;;;;;;;10.33;100.00;98633.44;5045737;28;20077;-93
2024/04/02 05:19:44;;;;;;;4.75;1.02;;;;;;;10.41;100.00;98642.94;5045213;28;20067;-92
2024/04/02 05:22:10;;;;;;;8.00;1.77;;;;;;;10.36;100.00;98650.16;5039549;28;20041;-93
2024/04/02 05:24:37;;;;;;;11.57;1.73;;;;;;;10.35;100.00;98636.94;5047081;28;20083;-94
2024/04/02 05:27:05;;;;;;;9.82;1.48;;;;;;;10.22;100.00;98600.03;5058675;28;20047;-93
2024/04/02 05:29:30;;;;;;;10.38;1.30;;;;;;;10.50;100.00;98636.50;5056262;28;20041;-93
2024/04/02 05:31:56;;;;;;;8.13;1.77;;;;;;;10.49;100.00;98632.06;5044765;28;20111;-92
2024/04/02 05:34:22;;;;;;;9.00;1.55;;;;;;;10.17;100.00;98547.91;5052882;28;20060;-92
2024/04/02 05:36:49;;;;;;;8.80;1.33;;;;;;;10.71;100.00;98628.78;5059097;28;20041;-93
2024/04/02 05:39:15;;;;;;;7.75;1.20;;;;;;;10.65;100.00;98635.19;5062599;28;20514;-93
2024/04/02 05:41:41;;;;;;;6.90;1.20;;;;;;;10.34;100.00;98596.16;5047939;28;20037;-94
2024/04/02 05:44:08;;;;;;;8.02;1.05;;;;;;;10.75;100.00;98639.28;5046529;28;20198;-93
2024/04/02 05:46:34;;;;;;;2.40;0.80;;;;;;;10.85;100.00;98642.56;5058876;28;20044;-92
2024/04/02 05:49:00;;;;;;;4.75;1.70;;;;;;;10.69;100.00;98599.56;5059402;28;20102;-92
2024/04/02 05:51:26;;;;;;;7.70;1.38;;;;;;;11.00;100.00;98641.22;5043516;28;20041;-92
2024/04/02 05:53:52;;;;;;;8.68;1.85;;;;;;;11.01;100.00;98629.63;5038701;28;20131;-92
2024/04/02 05:56:18;;;;;;;3.45;1.05;;;;;;;11.02;100.00;98615.44;5039766;28;20431;-93
2024/04/02 05:58:44;;;;;;;8.48;1.80;;;;;;;11.18;100.00;98639.75;5044469;28;20067;-94
2024/04/02 06:01:11;;;;;;;8.80;1.23;;;;;;;11.28;100.00;98641.22;5034726;28;20116;-92
2024/04/02 06:03:37;;;;;;;10.80;1.45;;;;;;;11.45;100.00;98659.28;5025202;28;20041;-93
2024/04/02 06:06:05;;;;;;;4.80;1.48;;;;;;;11.41;100.00;98657.69;5035453;28;20037;-94
2024/04/02 06:08:31;;;;;;;7.32;1.63;;;;;;;11.66;100.00;98655.06;5046169;28;20052;-93
2024/04/02 06:10:57;;;;;;;12.70;1.90;;;;;;;11.38;100.00;98572.56;5038745;28;20041;-93
2024/04/02 06:13:23;;;;;;;9.82;1.05;;;;;;;12.03;100.00;98664.50;5040374;28;20095;-94
2024/04/02 06:15:49;;;;;;;13.30;2.50;;;;;;;12.24;100.00;98662.88;5042517;28;20053;-94
2024/04/02 06:18:17;;;;;;;10.20;1.45;;;;;;;12.21;100.00;98665.66;5037110;28;20046;-94
2024/04/02 06:20:43;;;;;;;9.23;1.33;;;;;;;12.16;100.00;98667.63;5040091;28;20038;-94
2024/04/02 06:23:08;;;;;;;6.90;1.50;;;;;;;11.83;100.00;98586.09;5039479;28;20038;-94
2024/04/02 06:25:34;;;;;;;8.43;1.38;;;;;;;11.78;100.00;98544.56;5040253;28;20084;-93
2024/04/02 06:28:00;;;;;;;8.30;1.20;;;;;;;12.59;100.00;98624.25;5037650;28;20116;-93
2024/04/02 06:30:26;;;;;;;7.97;1.42;;;;;;;12.94;100.00;98672.75;5055138;28;20504;-93
2024/04/02 06:32:52;;;;;;;9.68;1.52;;;;;;;12.82;100.00;98642.06;5054142;28;20047;-95
2024/04/02 06:35:20;;;;;;;10.43;0.98;;;;;;;13.00;100.00;98671.66;5055386;28;20071;-93
2024/04/02 06:37:46;;;;;;;4.32;1.15;;;;;;;13.05;100.00;98677.66;5054457;28;20132;-93
2024/04/02 06:40:12;;;;;;;6.13;1.17;;;;;;;12.98;100.00;98668.16;5041460;28;20076;-93
2024/04/02 06:42:38;;;;;;;3.67;1.40;;;;;;;12.91;100.00;98664.88;5048693;28;20041;-93
2024/04/02 06:45:05;;;;;;;6.10;1.70;;;;;;;13.02;100.00;98649.31;5038540;28;20045;-93
2024/04/02 06:47:31;;;;;;;5.60;1.45;;;;;;;13.26;100.00;98690.19;5031681;28;20042;-93
2024/04/02 06:49:58;;;;;;;10.02;1.20;;;;;;;12.96;100.00;98649.53;5036230;28;20043;-94
2024/04/02 06:52:25;;;;;;;5.72;1.50;;;;;;;13.51;100.00;98690.13;5037174;28;20072;-94
2024/04/02 06:54:52;;;;;;;8.00;1.17;;;;;;;13.06;100.00;98559.31;5036344;28;20048;-95
2024/04/02 06:57:18;;;;;;;20.40;2.47;;;;;;;13.04;100.00;98606.53;5041246;28;20571;-95
2024/04/02 06:59:45;;;;;;;15.52;1.27;;;;;;;13.39;100.00;98671.06;5036405;28;20095;-96
2024/04/02 07:02:11;;;;;;;3.72;1.10;;;;;;;13.68;100.00;98701.91;5055511;28;20022;-92
2024/04/02 07:04:37;;;;;;;10.30;1.27;;;;;;;13.48;100.00;98663.53;5062419;28;20032;-92
2024/04/02 07:07:03;;;;;;;12.05;1.73;;;;;;;13.31;100.00;98605.44;5066466;28;20113;-90
2024/04/02 07:09:31;;;;;;;10.90;1.25;;;;;;;14.06;100.00;98691.44;5053287;28;20140;-94
2024/04/02 07:11:57;;;;;;;6.55;1.08;;;;;;;13.26;100.00;98580.69;5044616;28;20440;-94
2024/04/02 07:14:23;;;;;;;4.97;1.95;;;;;;;13.85;100.00;98634.41;5041402;28;20049;-93
2024/04/02 07:16:49;;;;;;;10.50;1.27;;;;;;;13.71;100.00;98673.28;5039749;28;20045;-95
2024/04/02 07:19:15;;;;;;;9.45;1.60;;;;;;;13.26;100.00;98587.84;5035212;28;20099;-93
2024/04/02 07:21:41;;;;;;;10.30;2.13;;;;;;;14.42;100.00;98710.41;5034999;28;20444;-93
2024/04/02 07:24:08;;;;;;;8.35;1.00;;;;;;;14.77;100.00;98713.34;5034834;28;20056;-95
2024/04/02 07:26:35;;;;;;;9.35;1.30;;;;;;;13.86;100.00;98588.06;5036859;28;20099;-94
2024/04/02 07:29:01;;;;;;;6.45;1.13;;;;;;;14.91;100.00;98718.94;5035584;28;20042;-95
2024/04/02 07:31:28;;;;;;;5.18;0.90;;;;;;;14.45;100.00;98646.03;5050498;28;20037;-95
2024/04/02 07:33:54;;;;;;;8.65;1.52;;;;;;;14.63;100.00;98721.97;5057039;28;20041;-95
2024/04/02 07:36:20;;;;;;;6.07;1.25;;;;;;;14.71;100.00;98652.06;5034441;28;20046;-95
2024/04/02 07:38:46;;;;;;;6.85;1.33;;;;;;;15.27;100.00;98730.72;5015517;28;20076;-95
2024/04/02 07:41:12;;;;;;;6.15;1.48;;;;;;;15.51;100.00;98728.69;5015441;28;20042;-95
2024/04/02 07:43:40;;;;;;;6.15;1.10;;;;;;;15.37;100.00;98735.53;5018397;28;20046;-94
2024/04/02 07:46:11;;;;;;;7.07;1.30;;;;;;;15.29;100.00;98740.41;5016684;28;20092;-94
2024/04/02 07:48:37;;;;;;;12.13;1.70;;;;;;;14.71;100.00;98614.59;5016226;28;20069;-96
2024/04/02 07:51:12;;;;;;;14.85;1.45;;;;;;;15.18;100.00;98703.41;5018823;28;20050;-95
2024/04/02 07:53:38;;;;;;;8.35;1.30;;;;;;;14.95;100.00;98653.59;5017329;28;20114;-96
2024/04/02 07:56:04;;;;;;;15.13;1.20;;;;;;;15.33;100.00;98712.53;5016485;28;20142;-94
2024/04/02 07:58:33;;;;;;;5.70;1.00;;;;;;;15.62;100.00;98758.50;5016363;28;20057;-95
2024/04/02 08:01:02;;;;;;;5.70;0.95;;;;;;;15.03;100.00;98755.00;5031741;28;20057;-95
2024/04/02 08:03:28;;;;;;;9.70;1.27;;;;;;;15.33;100.00;98763.44;5035798;28;20505;-96
2024/04/02 08:06:00;;;;;;;10.13;1.60;;;;;;;14.91;100.00;98669.88;5036180;28;20517;-96
2024/04/02 08:08:29;;;;;;;4.93;1.45;;;;;;;15.58;100.00;98778.38;5036977;28;20049;-95
2024/04/02 08:11:01;;;;;;;6.35;2.13;;;;;;;15.14;100.00;98715.22;5057368;28;20080;-93
2024/04/02 08:13:27;;;;;;;8.45;1.65;;;;;;;15.52;100.00;98744.66;5059038;28;20492;-94
2024/04/02 08:15:54;;;;;;;6.38;1.17;;;;;;;15.98;100.00;98781.81;5060171;28;20477;-95
2024/04/02 08:18:23;;;;;;;13.52;1.55;;;;;;;15.58;100.00;98781.03;5056868;28;20040;-95
2024/04/02 08:20:52;;;;;;;12.75;1.63;;;;;;;15.23;100.00;98777.34;5057627;28;20067;-94
2024/04/02 08:23:18;;;;;;;9.23;1.52;;;;;;;14.17;100.00;98683.84;5058797;28;20045;-96
2024/04/02 08:25:44;;;;;;;6.07;0.95;;;;;;;14.68;100.00;98669.13;5055637;28;20078;-96
2024/04/02 08:28:10;;;;;;;10.50;1.65;;;;;;;15.16;100.00;98686.53;5057555;28;20041;-95
2024/04/02 08:30:45;;;;;;;6.63;1.20;;;;;;;15.07;100.00;98748.56;5056100;28;20060;-96
2024/04/02 08:33:11;;;;;;;6.35;1.50;;;;;;;14.72;100.00;98646.63;5038689;28;20050;-95
2024/04/02 08:35:42;;;;;;;12.38;1.73;;;;;;;14.55;100.00;98663.47;5056727;28;20056;-94
2024/04/02 08:38:07;;;;;;;4.88;1.10;;;;;;;15.80;100.00;98773.72;5055747;28;20040;-95
2024/04/02 08:40:35;;;;;;;3.70;1.27;;;;;;;16.50;100.00;98779.22;5047081;28;20071;-96
2024/04/02 08:43:08;;;;;;;5.72;0.80;;;;;;;16.84;100.00;98783.75;5036523;28;20437;-94
2024/04/02 08:45:40;;;;;;;6.13;0.95;;;;;;;17.01;100.00;98774.81;5046556;28;20045;-96
2024/04/02 08:48:10;;;;;;;7.93;1.30;;;;;;;16.32;100.00;98696.97;5037599;28;20100;-95
2024/04/02 08:50:38;;;;;;;4.97;0.60;;;;;;;16.51;100.00;98774.75;5045911;28;20044;-93
2024/04/02 08:53:04;;;;;;;4.13;0.90;;;;;;;17.02;100.00;98767.59;5048528;28;20057;-92
2024/04/02 08:55:30;;;;;;;5.28;1.13;;;;;;;17.15;100.00;98760.63;5037367;28;20056;-93
2024/04/02 08:57:57;;;;;;;5.38;1.20;;;;;;;16.57;100.00;98656.31;5039828;28;20134;-94
2024/04/02 09:00:24;;;;;;;3.58;0.85;;;;;;;17.18;100.00;98775.72;5049410;28;20056;-94
2024/04/02 09:02:53;;;;;;;10.95;1.15;;;;;;;16.59;100.00;98654.38;5052037;28;20047;-95
2024/04/02 09:05:19;;;;;;;4.68;0.73;;;;;;;17.09;100.00;98769.03;5057476;28;20045;-96
2024/04/02 09:07:47;;;;;;;4.70;1.08;;;;;;;17.36;100.00;98772.03;5043274;28;20053;-94
2024/04/02 09:10:16;;;;;;;6.18;1.40;;;;;;;16.32;100.00;98662.94;5053777;28;20045;-95
2024/04/02 09:12:43;;;;;;;4.22;1.02;;;;;;;17.50;100.00;98767.69;5048796;28;20109;-96
2024/04/02 09:15:09;;;;;;;5.68;0.90;;;;;;;17.34;100.00;98779.31;5051362;28;20068;-96
2024/04/02 09:17:35;;;;;;;9.20;1.05;;;;;;;17.47;100.00;98778.66;5055245;28;20052;-95
2024/04/02 09:20:01;;;;;;;3.80;0.80;;;;;;;17.65;100.00;98778.50;5046015;28;20045;-93
2024/04/02 09:22:27;;;;;;;3.13;0.90;;;;;;;17.18;100.00;98657.50;5048202;28;20037;-93
2024/04/02 09:25:01;;;;;;;4.80;0.75;;;;;;;17.92;100.00;98779.75;5037733;28;20050;-92
2024/04/02 09:27:27;;;;;;;5.05;1.05;;;;;;;17.79;100.00;98733.81;5039640;28;20069;-96
2024/04/02 09:29:54;;;;;;;3.17;1.02;;;;;;;17.48;100.00;98792.00;5062048;28;20045;-93
2024/04/02 09:32:28;;;;;;;8.52;1.05;;;;;;;17.50;100.00;98802.66;5065471;28;20041;-92
2024/04/02 09:34:56;;;;;;;5.75;0.80;;;;;;;18.22;100.00;98795.97;5073328;28;20056;-96
2024/04/02 09:37:34;;;;;;;4.93;0.75;;;;;;;17.58;100.00;98682.97;5065426;28;20113;-96
2024/04/02 09:40:18;;;;;;;4.70;0.82;;;;;;;17.93;99.32;98751.88;5062756;28;20132;-95
2024/04/02 09:42:52;;;;;;;4.15;0.60;;;;;;;17.65;95.51;98675.41;5063170;28;20048;-95
2024/04/02 09:45:19;;;;;;;4.78;0.77;;;;;;;17.83;95.35;98695.91;5061452;28;20061;-96
2024/04/02 09:47:53;;;;;;;3.72;0.70;;;;;;;18.36;94.00;98795.16;5062660;28;20051;-96
2024/04/02 09:50:19;;;;;;;7.28;0.95;;;;;;;18.52;98.00;98796.00;5059826;28;20147;-96
2024/04/02 09:52:46;;;;;;;7.28;0.80;;;;;;;18.06;92.13;98717.91;5048263;28;20547;-95
2024/04/02 09:55:15;;;;;;;3.63;0.70;;;;;;;17.84;90.26;98648.38;5039695;28;20048;-96
2024/04/02 09:57:41;;;;;;;5.93;0.80;;;;;;;18.05;88.80;98673.16;5039734;28;20493;-96
2024/04/02 10:00:10;;;;;;;9.68;1.20;;;;;;;18.18;85.98;98676.84;5039933;28;20115;-95
2024/04/02 10:02:40;;;;;;;4.30;0.75;;;;;;;18.40;82.38;98783.25;5039837;28;20129;-95
2024/04/02 10:05:09;;;;;;;2.75;0.60;;;;;;;18.34;82.91;98754.84;5055244;28;20045;-96
2024/04/02 10:07:41;;;;;;;3.80;0.80;;;;;;;18.60;80.31;98791.00;5039978;28;20053;-96
2024/04/02 10:10:08;;;;;;;2.60;0.50;;;;;;;17.82;67.94;98666.41;5039469;28;20049;-96
2024/04/02 10:12:36;;;;;;;4.65;0.95;;;;;;;18.54;64.30;98731.25;5037541;28;20048;-95
2024/04/02 10:15:10;;;;;;;6.45;0.82;;;;;;;18.85;63.00;98741.94;5036724;28;20041;-95
2024/04/02 10:17:39;;;;;;;2.67;0.95;;;;;;;18.96;61.42;98779.00;5039248;28;20049;-95
2024/04/02 10:20:16;;;;;;;8.05;0.65;;;;;;;18.73;62.37;98725.63;5036743;28;20053;-96
2024/04/02 10:22:43;;;;;;;5.88;0.90;;;;;;;18.91;61.69;98788.31;5039858;28;20073;-96
2024/04/02 10:25:09;;;;;;;3.80;0.63;;;;;;;18.57;60.86;98715.78;5040571;28;20048;-96
2024/04/02 10:27:42;;;;;;;5.22;0.77;;;;;;;18.17;62.28;98690.38;5039747;28;20141;-96
2024/04/02 10:30:15;;;;;;;3.10;0.93;;;;;;;18.41;61.41;98679.97;5038227;28;20049;-96
2024/04/02 10:32:42;;;;;;;7.70;1.42;;;;;;;18.22;61.72;98686.47;5022645;28;20053;-95
2024/04/02 10:35:16;;;;;;;2.78;0.60;;;;;;;19.09;62.39;98777.28;5020233;28;20141;-96
2024/04/02 10:37:42;;;;;;;3.45;0.98;;;;;;;18.61;59.82;98682.31;5033762;28;20117;-95
2024/04/02 10:40:10;;;;;;;3.83;0.82;;;;;;;19.21;59.49;98705.53;5037438;28;20076;-96
2024/04/02 10:42:39;;;;;;;4.10;0.80;;;;;;;19.69;59.78;98760.06;5040329;28;20064;-96
2024/04/02 10:45:08;;;;;;;4.38;0.70;;;;;;;19.89;60.34;98723.66;5040143;28;20045;-96
2024/04/02 10:47:44;;;;;;;7.57;0.88;;;;;;;18.68;57.45;98650.47;5043040;28;20045;-96
2024/04/02 10:50:11;;;;;;;3.28;0.95;;;;;;;19.65;58.06;98688.34;5047188;28;20083;-94
2024/04/02 10:52:40;;;;;;;5.65;1.00;;;;;;;19.22;58.37;98647.13;5058338;28;20037;-95
2024/04/02 10:55:06;;;;;;;4.03;0.85;;;;;;;20.06;57.44;98752.25;5057402;28;20041;-94
2024/04/02 10:57:32;;;;;;;2.78;0.50;;;;;;;19.95;56.31;98683.72;5061905;28;20045;-96
2024/04/02 11:00:01;;;;;;;5.68;1.05;;;;;;;19.59;55.75;98642.03;5063284;28;20075;-95
2024/04/02 11:02:28;;;;;;;5.13;0.90;;;;;;;19.59;54.01;98634.78;5059518;28;20059;-96
2024/04/02 11:04:55;;;;;;;5.10;1.35;;;;;;;19.98;52.94;98741.09;5057707;28;20087;-96
2024/04/02 11:07:24;;;;;;;3.83;0.70;;;;;;;20.02;52.52;98749.84;5057330;28;20049;-96
2024/04/02 11:09:49;;;;;;;3.85;1.25;;;;;;;19.92;51.69;98741.50;5048172;28;20043;-96
2024/04/02 11:12:29;;;;;;;5.90;0.93;;;;;;;19.76;53.57;98744.34;5040933;28;20136;-96
2024/04/02 11:14:59;;;;;;;2.75;0.70;;;;;;;19.05;53.98;98689.47;5048096;28;20056;-96
2024/04/02 11:17:27;;;;;;;4.38;0.88;;;;;;;19.63;53.71;98743.38;5021015;28;20046;-96
2024/04/02 11:19:56;;;;;;;7.57;0.93;;;;;;;19.10;51.86;98751.19;5048205;28;20033;-95
2024/04/02 11:25:20;;;;;;;5.43;2.35;;;;;;;18.89;53.31;98731.84;4822773;27;9160262;-93
2024/04/02 11:27:47;;;;;;;3.15;1.70;;;;;;;19.17;54.11;98713.94;5113793;28;20044;-94